Latest Weather Observations for Fitzroy Crossing

IDW60801

Issued at 7:53 pm WST Monday 27 January 2020 (issued every 10 minutes, with the page automatically refreshed every 10 minutes)

About weather observations | Map of weather stations | Latest weather observations for WA | Other Formats
Station Details ID: 003093 Name: FITZROY CROSSING AERO Lat: -18.18 Lon: 125.56 Height: 114.5 m
Data from the previous 72 hours. | See also: Recent months at Fitzroy Crossing
Date/Time
WST
Temp
°C
App
Temp
°C
Dew
Point
°C
Rel
Hum
%
Delta-T
°C
Wind Press
QNH
hPa
Press
MSL
hPa
Rain since
9am
mm
Dir  Spd
km/h
Gust
km/h
Spd
kts
Gust
kts
27/07:30pm 32.4 34.6 21.9 54 7.2 WNW 13 13 7 7 1007.1 1006.2 0.0
27/07:00pm 33.0 36.2 22.4 53 7.3 WNW 9 11 5 6 1006.7 1005.8 0.0
27/06:30pm 33.8 36.5 22.2 50 8.0 WNW 11 11 6 6 1006.0 1005.0 0.0
27/06:00pm 35.5 38.4 21.7 44 9.5 WNW 9 11 5 6 1005.8 1004.8 0.0
27/05:30pm 36.6 38.6 20.0 38 11.2 WNW 9 13 5 7 1005.8 1004.8 0.0
27/05:00pm 37.8 39.7 19.7 34 12.2 NW 9 13 5 7 1005.7 1004.7 0.0
27/04:30pm 38.2 39.6 18.6 31 13.0 WNW 9 13 5 7 1005.6 1004.6 0.0
27/04:00pm 38.8 41.3 19.1 31 13.2 WSW 4 9 2 5 1005.7 1004.7 0.0
27/03:30pm 38.1 40.4 19.5 33 12.5 SW 6 11 3 6 1005.9 1004.9 0.0
27/03:00pm 37.8 40.8 20.1 35 12.0 NNW 4 7 2 4 1006.0 1005.0 0.0
27/02:30pm 37.6 40.2 20.4 36 11.6 W 7 13 4 7 1006.8 1005.9 0.0
27/02:00pm 37.2 39.6 20.9 38 11.1 SW 9 13 5 7 1007.3 1006.4 0.0
27/01:30pm 36.4 38.3 20.6 39 10.7 WNW 11 15 6 8 1007.6 1006.7 0.0
27/01:00pm 35.7 38.7 21.9 44 9.5 SSW 9 15 5 8 1008.0 1007.1 0.0
27/12:30pm 35.3 38.7 23.3 50 8.4 WSW 11 15 6 8 1008.3 1007.4 0.0
27/12:00pm 34.5 38.1 24.4 55 7.1 SW 13 20 7 11 1008.9 1008.0 0.0
27/11:30am 33.7 37.6 24.8 59 6.3 SW 13 20 7 11 1009.4 1008.5 0.0
27/11:00am 33.1 36.5 24.6 61 6.0 SW 15 19 8 10 1009.6 1008.7 0.0
27/10:30am 31.9 34.9 24.0 63 5.5 SW 15 19 8 10 1009.9 1009.0 0.0
27/10:00am 31.6 35.0 23.4 61 5.7 SW 11 17 6 9 1010.0 1009.1 0.0
27/09:30am 31.2 34.5 23.8 64 5.2 SW 13 17 7 9 1010.1 1009.2 0.0
27/09:00am 31.3 35.0 23.9 64 5.2 W 11 15 6 8 1010.0 1009.1 0.0
27/08:30am 30.3 34.2 24.2 70 4.3 WNW 11 15 6 8 1009.8 1008.9 0.0
27/08:00am 29.9 33.7 24.1 71 4.0 WNW 11 15 6 8 1009.6 1008.7 0.0
27/07:30am 29.5 33.3 24.1 72 3.8 WNW 11 13 6 7 1009.5 1008.6 0.0
27/07:00am 29.4 32.7 23.8 72 3.9 NW 13 15 7 8 1009.1 1008.2 0.0
27/06:30am 28.2 32.8 24.8 82 2.4 NW 9 13 5 7 1008.7 1007.8 0.0
27/06:00am 27.4 30.7 24.5 84 2.0 NW 15 20 8 11 1008.5 1007.6 0.0
27/05:30am 27.0 30.6 24.3 85 1.9 NW 13 15 7 8 1008.1 1007.2 0.0
27/05:00am 27.2 31.1 24.3 84 2.0 WNW 11 15 6 8 1007.9 1007.0 0.0
27/04:30am 27.1 30.9 24.0 83 2.1 NW 11 11 6 6 1007.5 1006.6 0.0
27/04:00am 27.6 31.6 23.8 80 2.6 W 9 11 5 6 1007.3 1006.4 0.0
27/03:30am 27.9 32.0 23.3 76 3.2 NW 7 9 4 5 1007.1 1006.2 0.0
27/03:00am 28.8 31.7 23.2 71 3.9 WNW 13 19 7 10 1006.9 1006.0 0.0
27/02:30am 28.8 33.2 24.4 77 3.1 WNW 9 11 5 6 1006.9 1006.0 0.0
27/02:00am 28.8 34.2 25.2 81 2.5 NW 6 7 3 4 1006.9 1006.0 0.0
27/01:30am 28.9 34.0 24.9 79 2.8 NNW 7 7 4 4 1006.9 1006.0 0.0
27/01:00am 29.1 34.5 25.1 79 2.8 NW 6 7 3 4 1007.3 1006.4 0.0
27/12:30am 29.1 36.0 25.7 82 2.4 CALM 0 0 0 0 1007.7 1006.8 0.0
27/12:00am 29.1 35.6 25.1 79 2.8 CALM 0 0 0 0 1008.2 1007.3 0.0
 
Date/Time
WST
Temp
°C
App
Temp
°C
Dew
Point
°C
Rel
Hum
%
Delta-T
°C
Wind Press
QNH
hPa
Press
MSL
hPa
Rain since
9am
mm
Dir  Spd
km/h
Gust
km/h
Spd
kts
Gust
kts
26/11:30pm 29.0 34.8 25.2 80 2.7 N 4 7 2 4 1008.6 1007.7 0.0
26/11:00pm 29.2 35.8 25.2 79 2.8 CALM 0 0 0 0 1008.8 1007.9 0.0
26/10:30pm 29.1 34.4 25.3 80 2.7 NNW 7 9 4 5 1009.0 1008.1 0.0
26/10:00pm 29.0 34.0 25.4 81 2.5 NNW 9 9 5 5 1009.0 1008.1 0.0
26/09:30pm 29.3 34.6 25.3 79 2.8 N 7 9 4 5 1009.0 1008.1 0.0
26/09:00pm 29.1 34.3 25.1 79 2.8 N 7 9 4 5 1008.4 1007.5 0.0
26/08:30pm 29.5 34.8 25.0 77 3.2 NNW 6 7 3 4 1007.8 1006.9 0.0
26/08:00pm 29.8 34.9 24.7 74 3.6 NNW 6 9 3 5 1007.7 1006.8 0.0
26/07:30pm 30.3 35.1 24.4 70 4.1 N 7 9 4 5 1007.7 1006.8 0.0
26/07:00pm 30.4 35.5 25.0 73 3.8 N 7 9 4 5 1007.6 1006.7 0.0
26/06:30pm 31.0 35.4 24.4 68 4.6 N 9 11 5 6 1007.3 1006.4 0.0
26/06:00pm 32.8 38.6 24.0 60 6.2 CALM 0 0 0 0 1007.0 1006.1 0.0
26/05:30pm 33.0 38.4 23.3 56 6.7 CALM 0 0 0 0 1007.1 1006.2 0.0
26/05:00pm 32.7 37.3 23.1 57 6.7 ESE 4 7 2 4 1007.1 1006.2 0.0
26/04:30pm 33.1 37.5 23.4 56 6.8 SE 6 13 3 7 1007.1 1006.2 0.0
26/04:00pm 33.3 37.1 22.7 53 7.3 ESE 7 13 4 7 1007.0 1006.1 0.0
26/03:30pm 32.7 36.3 23.1 57 6.6 ESE 9 17 5 9 1007.1 1006.2 0.0
26/03:00pm 33.0 36.8 22.7 54 7.1 SE 7 13 4 7 1007.4 1006.5 0.0
26/02:30pm 32.0 34.8 23.0 59 6.2 E 13 20 7 11 1007.7 1006.8 0.0
26/02:00pm 32.0 34.6 22.7 58 6.4 E 13 19 7 10 1008.0 1007.1 0.0
26/01:30pm 31.8 34.3 23.1 60 6.0 E 15 20 8 11 1008.2 1007.3 0.0
26/01:00pm 32.1 35.0 22.5 57 6.6 SE 11 17 6 9 1008.5 1007.6 0.0
26/12:30pm 31.0 33.4 22.3 60 5.9 SE 13 17 7 9 1008.6 1007.7 0.0
26/12:00pm 31.0 34.2 23.1 63 5.5 S 11 17 6 9 1008.8 1007.9 0.0
26/11:30am 29.6 32.9 22.6 66 4.8 SSE 9 13 5 7 1009.0 1008.1 0.0
26/11:00am 29.0 31.6 22.7 69 4.3 ESE 13 19 7 10 1009.3 1008.4 0.0
26/10:30am 28.6 31.6 22.6 70 4.1 SE 11 17 6 9 1009.3 1008.4 0.0
26/10:00am 27.9 31.2 22.6 73 3.6 SW 9 17 5 9 1009.0 1008.1 0.0
26/09:30am 27.1 30.1 22.7 77 3.0 SW 11 15 6 8 1009.2 1008.3 0.0
26/09:00am 26.7 30.9 23.2 81 2.4 E 6 9 3 5 1009.4 1008.5 39.4
26/08:30am 26.2 29.5 22.5 80 2.5 SSE 9 13 5 7 1009.1 1008.2 39.4
26/08:00am 25.6 28.3 22.1 81 2.4 NW 11 17 6 9 1008.7 1007.8 39.4
26/07:30am 24.6 26.2 22.1 86 1.7 NW 17 24 9 13 1008.3 1007.4 39.4
26/07:00am 24.0 26.5 22.4 91 1.1 WNW 13 17 7 9 1008.8 1007.9 39.4
26/06:30am 23.1 24.7 21.5 91 1.1 N 15 20 8 11 1008.9 1008.0 39.4
26/06:00am 22.9 23.5 21.4 91 1.0 N 20 26 11 14 1009.6 1008.7 39.2
26/05:30am 22.7 23.3 21.3 92 0.9 N 20 24 11 13 1009.9 1009.0 38.8
26/05:00am 22.8 24.1 21.6 93 0.8 N 17 20 9 11 1010.2 1009.3 37.4
26/04:30am 22.8 24.4 21.4 92 0.9 N 15 20 8 11 1010.2 1009.3 36.2
26/04:00am 22.7 24.6 21.3 92 0.9 N 13 17 7 9 1010.2 1009.3 35.0
26/03:30am 22.7 24.9 20.4 87 1.5 NW 9 13 5 7 1010.5 1009.6 33.6
26/03:00am 22.5 23.7 20.0 86 1.6 NNW 13 17 7 9 1009.6 1008.7 33.6
26/02:30am 22.5 22.4 20.0 86 1.6 NW 20 26 11 14 1009.0 1008.1 33.6
26/02:00am 22.1 23.2 20.4 90 1.1 WNW 15 26 8 14 1009.1 1008.2 33.0
26/01:54am 21.9 20.1 20.4 91 1.0 WSW 30 56 16 30 1009.4 1008.5 32.0
26/01:51am 22.1 19.1 20.7 92 0.9 SW 37 56 20 30 1009.5 1008.6 30.0
26/01:43am 22.1 18.8 20.9 93 0.8 SW 39 54 21 29 1009.5 1008.6 25.6
26/01:34am 22.6 21.6 20.5 88 1.4 SSE 26 54 14 29 1009.9 1009.0 19.6
26/01:30am 24.5 25.7 21.4 83 2.1 SE 17 30 9 16 1008.9 1008.0 16.6
26/01:00am 23.3 21.1 22.1 93 0.8 ENE 37 56 20 30 1006.8 1005.9 14.8
26/12:46am 23.8 21.7 21.7 88 1.4 ENE 35 54 19 29 1007.4 1006.5 1.6
26/12:30am 25.4 24.0 22.3 83 2.1 E 33 57 18 31 1007.7 1006.8 0.4
26/12:25am 26.2 24.9 21.4 75 3.2 SE 30 57 16 31 1007.3 1006.4 0.4
26/12:24am 26.4 25.6 21.6 75 3.2 SSE 28 57 15 31 1007.4 1006.5 0.4
26/12:21am 27.2 26.7 21.5 71 3.8 SSW 26 57 14 31 1007.4 1006.5 0.4
26/12:19am 28.7 29.5 21.7 66 4.7 SW 20 43 11 23 1007.4 1006.5 0.4
26/12:00am 31.8 34.8 24.7 66 5.0 W 17 28 9 15 1006.9 1006.0 0.4
 
Date/Time
WST
Temp
°C
App
Temp
°C
Dew
Point
°C
Rel
Hum
%
Delta-T
°C
Wind Press
QNH
hPa
Press
MSL
hPa
Rain since
9am
mm
Dir  Spd
km/h
Gust
km/h
Spd
kts
Gust
kts
25/11:30pm 32.5 36.8 24.3 62 5.8 S 9 11 5 6 1007.5 1006.6 0.2
25/11:00pm 33.3 35.9 22.7 53 7.3 WNW 13 20 7 11 1007.5 1006.6 0.0
25/10:30pm 33.1 35.0 22.8 54 7.1 NW 17 20 9 11 1006.7 1005.8 0.0
25/10:00pm 32.2 34.2 22.3 56 6.8 NW 15 17 8 9 1006.4 1005.4 0.0
25/09:30pm 31.6 32.9 20.2 50 7.6 NW 13 15 7 8 1006.3 1005.3 0.0
25/09:00pm 32.2 33.0 19.1 45 8.6 NW 13 19 7 10 1005.9 1004.9 0.0
25/08:30pm 31.7 32.2 18.3 45 8.7 NW 13 17 7 9 1005.5 1004.5 0.0
25/08:00pm 32.5 33.4 17.5 40 9.7 NNW 9 9 5 5 1005.3 1004.3 0.0
25/07:30pm 33.6 34.4 17.3 37 10.5 NNW 9 11 5 6 1005.1 1004.1 0.0
25/07:00pm 34.8 35.9 17.1 35 11.4 NW 7 9 4 5 1004.8 1003.8 0.0
25/06:30pm 36.2 36.5 16.9 32 12.4 WNW 11 13 6 7 1004.2 1003.3 0.0
25/06:00pm 37.9 37.4 16.8 29 13.7 WNW 15 19 8 10 1003.8 1002.9 0.0
25/05:30pm 39.0 37.8 16.0 26 14.8 WNW 17 24 9 13 1003.6 1002.7 0.0
25/05:00pm 39.6 38.3 15.9 25 15.3 WNW 17 24 9 13 1003.3 1002.4 0.0
25/04:30pm 39.9 38.7 16.1 24 15.3 WNW 17 24 9 13 1003.1 1002.2 0.0
25/04:00pm 40.1 38.7 16.9 25 15.2 W 20 28 11 15 1003.1 1002.2 0.0
25/03:30pm 40.0 38.8 17.4 26 14.8 W 20 26 11 14 1003.4 1002.5 0.0
25/03:00pm 40.5 38.9 16.6 24 15.6 WNW 20 28 11 15 1003.7 1002.8 0.0
25/02:30pm 40.1 40.1 18.1 27 14.6 WNW 15 22 8 12 1004.1 1003.2 0.0
25/02:00pm 40.1 41.0 19.2 29 14.1 W 13 30 7 16 1004.6 1003.7 0.0
25/01:30pm 39.8 40.5 18.9 29 14.0 W 13 20 7 11 1005.1 1004.1 0.0
25/01:00pm 38.8 40.1 20.1 33 12.7 WNW 13 24 7 13 1005.4 1004.4 0.0
25/12:30pm 38.1 38.5 19.0 32 12.7 W 15 24 8 13 1005.9 1004.9 0.0
25/12:00pm 37.2 38.5 20.9 38 11.1 WNW 15 20 8 11 1006.4 1005.4 0.0
25/11:30am 36.3 37.6 21.7 42 10.0 WNW 17 24 9 13 1006.9 1006.0 0.0
25/11:00am 35.9 37.3 22.8 46 9.1 WNW 20 28 11 15 1007.5 1006.6 0.0
25/10:30am 35.4 36.9 23.0 48 8.6 W 20 28 11 15 1008.0 1007.1 0.0
25/10:00am 34.9 37.1 23.2 50 8.2 W 17 30 9 16 1008.2 1007.3 0.0
25/09:30am 33.7 35.1 22.8 53 7.5 WNW 20 28 11 15 1008.3 1007.4 0.0
25/09:00am 33.0 34.6 23.3 56 6.8 WNW 20 28 11 15 1008.3 1007.4 0.0
25/08:30am 32.4 34.4 23.9 61 5.9 WNW 20 28 11 15 1008.3 1007.4 0.0
25/08:00am 31.6 33.4 24.2 65 5.2 WNW 22 30 12 16 1008.2 1007.3 0.0
25/07:30am 30.6 32.1 24.3 69 4.4 NW 24 32 13 17 1008.0 1007.1 0.0
25/07:00am 29.8 32.5 25.1 76 3.3 NW 20 26 11 14 1007.9 1007.0 0.0
25/06:30am 28.9 31.4 25.3 81 2.5 NW 22 30 12 16 1007.7 1006.8 0.0
25/06:00am 28.4 31.8 25.2 83 2.3 NW 17 24 9 13 1007.5 1006.6 0.0
25/05:30am 28.1 31.8 25.1 84 2.1 NW 15 20 8 11 1007.2 1006.3 0.0
25/05:00am 28.3 32.0 25.1 83 2.3 WNW 15 20 8 11 1006.9 1006.0 0.0
25/04:30am 28.2 32.2 25.0 83 2.2 NW 13 15 7 8 1006.5 1005.6 0.0
25/04:00am 28.2 32.1 24.8 82 2.4 NW 13 17 7 9 1006.3 1005.3 0.0
25/03:30am 28.4 32.6 24.8 81 2.5 NW 11 15 6 8 1006.5 1005.6 0.0
25/03:00am 28.8 31.9 24.8 79 2.8 NW 17 22 9 12 1006.5 1005.6 0.0
25/02:30am 29.1 31.8 24.7 77 3.1 WNW 19 26 10 14 1006.6 1005.7 0.0
25/02:00am 29.3 31.8 24.4 75 3.4 NW 19 22 10 12 1006.5 1005.6 0.0
25/01:30am 29.6 32.0 24.2 73 3.8 NW 19 24 10 13 1006.5 1005.6 0.0
25/01:00am 30.0 32.0 23.9 70 4.3 NW 20 28 11 15 1006.5 1005.6 0.0
25/12:30am 30.1 32.0 23.5 67 4.6 NW 19 26 10 14 1006.9 1006.0 0.0
25/12:00am 30.6 32.0 23.5 66 4.9 NW 22 30 12 16 1007.4 1006.5 0.0
 
Date/Time
WST
Temp
°C
App
Temp
°C
Dew
Point
°C
Rel
Hum
%
Delta-T
°C
Wind Press
QNH
hPa
Press
MSL
hPa
Rain since
9am
mm
Dir  Spd
km/h
Gust
km/h
Spd
kts
Gust
kts
24/11:30pm 30.8 33.1 23.5 65 5.1 NW 17 26 9 14 1007.8 1006.9 0.0
24/11:00pm 31.0 33.5 23.1 63 5.5 NW 15 20 8 11 1007.8 1006.9 0.0
24/10:30pm 31.5 33.4 22.8 60 6.0 NW 17 20 9 11 1007.7 1006.8 0.0
24/10:00pm 32.1 33.7 22.8 58 6.4 NW 19 24 10 13 1007.7 1006.8 0.0
24/09:30pm 32.7 34.2 23.1 57 6.6 NW 20 30 11 16 1007.5 1006.6 0.0
24/09:00pm 33.1 34.5 22.8 54 7.1 NW 20 28 11 15 1007.2 1006.3 0.0
24/08:30pm 33.5 34.4 22.6 53 7.5 NW 22 30 12 16 1007.0 1006.1 0.0
24/08:00pm 33.7 35.1 21.8 49 8.1 NW 17 24 9 13 1006.7 1005.8 0.0

Other formats

Comma delimited format used in spreadsheet applications
http://www.bom.gov.au/fwo/IDW60801/IDW60801.94206.axf

JavaScript Object Notation format (JSON) in row-major order
http://www.bom.gov.au/fwo/IDW60801/IDW60801.94206.json

Data quality

Most of these data are generated automatically and are frequently updated. Quality checks on data are not normally performed. It is possible for incorrect values to appear. Refer to information at About Latest Weather Observations and please check the disclaimer before using these data.